Latest Weather Observations for Cunderdin Airport

IDW60801

Issued at 2:35 pm WST Wednesday 20 August 2014 (issued every 30 minutes, with the page automatically refreshed every 10 minutes)

About weather observations | Map of weather stations | Latest weather observations for WA | Other Formats
Station Details ID: 010286 Name: CUNDERDIN AIRFIELD Lat: -31.62 Lon: 117.22 Height: 216.7 m
Data from the previous 72 hours. | See also: Recent months at Cunderdin Airport
Date/Time
WST
Temp
°C
App
Temp
°C
Dew
Point
Rel
Hum
%
Delta-T
°C
Wind Press
QNH
hPa
Press
MSL
hPa
Rain
since 9 am
mm
Dir
 
Spd
km/h
Gust
km/h
Spd
kts
Gust
kts
20/02:30pm 18.1 15.1 12.5 70 3.1 N 20 28 11 15 1014.8 1014.9 0.0
20/02:00pm 17.6 15.1 12.3 71 3.0 N 17 22 9 12 1015.1 1015.2 0.0
20/01:30pm 17.5 14.4 12.2 71 3.0 N 20 30 11 16 1015.3 1015.4 0.0
20/01:00pm 18.3 15.7 13.2 72 2.9 N 19 24 10 13 1015.4 1015.5 0.0
20/12:30pm 17.3 14.1 12.0 71 2.9 N 20 24 11 13 1015.8 1015.9 0.0
20/12:00pm 17.7 14.8 12.4 71 3.0 N 19 24 10 13 1016.2 1016.3 0.0
20/11:30am 17.7 14.8 12.4 71 3.0 N 19 24 10 13 1016.5 1016.6 0.0
20/11:00am 17.9 15.2 13.6 76 2.5 N 20 28 11 15 1016.9 1017.0 0.0
20/10:30am 16.7 15.3 13.4 81 1.9 N 13 20 7 11 1017.2 1017.3 0.0
20/10:00am 17.1 18.2 14.7 86 1.4 NNE 2 9 1 5 1017.0 1017.1 0.0
20/09:30am 15.0 15.0 14.2 95 0.5 N 7 9 4 5 1017.2 1017.3 0.0
20/09:00am 14.2 14.2 13.7 97 0.3 N 6 9 3 5 1017.3 1017.4 0.8
20/08:30am 13.6 12.9 13.3 98 0.2 N 9 11 5 6 1017.2 - 0.8
20/08:00am 13.5 12.8 13.2 98 0.2 N 9 13 5 7 1017.2 1017.3 0.8
20/07:30am 12.4 11.7 12.1 98 0.2 N 7 9 4 5 1016.9 - 0.8
20/07:00am 11.4 10.6 10.9 97 0.3 NE 6 6 3 3 1016.9 1017.0 0.8
20/06:30am 11.2 11.1 10.7 97 0.3 ENE 2 7 1 4 1017.0 - 0.8
20/06:00am 11.4 11.7 10.9 97 0.3 CALM 0 0 0 0 1016.8 1016.9 0.8
20/05:30am 11.3 11.6 10.8 97 0.3 CALM 0 0 0 0 1016.7 - 0.8
20/05:00am 11.2 11.1 10.7 97 0.3 ENE 2 6 1 3 1016.4 1016.5 0.8
20/04:30am 10.9 9.7 10.4 97 0.3 ENE 7 7 4 4 1016.5 - 0.8
20/04:00am 10.7 10.4 10.2 97 0.3 NE 2 6 1 3 1016.7 1016.8 0.8
20/03:30am 10.4 9.3 9.9 97 0.3 NE 6 7 3 4 1017.0 - 0.8
20/03:00am 10.2 10.2 9.7 97 0.3 CALM 0 0 0 0 1017.1 1017.2 0.8
20/02:30am 9.8 9.7 9.3 97 0.3 CALM 0 0 0 0 1017.1 - 0.8
20/02:00am 9.6 9.4 9.1 97 0.2 CALM 0 0 0 0 1017.1 1017.2 0.8
20/01:30am 10.3 10.3 9.8 97 0.3 CALM 0 0 0 0 1017.2 - 0.8
20/01:00am 9.8 9.6 9.2 96 0.3 CALM 0 0 0 0 1017.4 1017.5 0.8
20/12:30am 9.2 8.9 8.6 96 0.3 CALM 0 6 0 3 1017.5 - 0.8
20/12:00am 8.5 8.0 7.9 96 0.3 CALM 0 0 0 0 1017.8 1017.9 0.8
 
Date/Time
WST
Temp
°C
App
Temp
°C
Dew
Point
Rel
Hum
%
Delta-T
°C
Wind Press
QNH
hPa
Press
MSL
hPa
Rain
since 9 am
mm
Dir
 
Spd
km/h
Gust
km/h
Spd
kts
Gust
kts
19/11:30pm 9.5 8.9 8.9 96 0.3 W 2 6 1 3 1017.7 - 0.8
19/11:00pm 9.4 7.8 8.6 95 0.4 W 7 7 4 4 1017.8 1017.9 0.8
19/10:30pm 9.5 7.1 8.7 95 0.4 NW 11 11 6 6 1017.9 - 0.8
19/10:00pm 9.7 7.8 8.9 95 0.4 WNW 9 11 5 6 1017.9 1018.0 0.8
19/09:30pm 10.4 8.6 9.6 95 0.4 WNW 9 11 5 6 1017.9 - 0.8
19/09:00pm 11.1 8.4 10.3 95 0.4 NNW 15 15 8 8 1017.7 1017.8 0.8
19/08:30pm 10.6 8.5 9.7 94 0.5 N 11 13 6 7 1017.4 - 0.8
19/08:00pm 11.0 9.7 10.1 94 0.5 N 7 11 4 6 1017.3 1017.4 0.8
19/07:30pm 12.2 11.3 11.3 94 0.5 WNW 7 9 4 5 1017.1 - 0.8
19/07:00pm 12.4 11.5 11.3 93 0.6 W 7 9 4 5 1017.0 1017.1 0.8
19/06:30pm 13.1 12.0 11.8 92 0.7 NNW 9 11 5 6 1016.7 - 0.8
19/06:00pm 14.2 13.6 12.2 88 1.1 N 7 9 4 5 1016.5 1016.6 0.8
19/05:30pm 16.2 15.7 13.7 85 1.4 WNW 9 11 5 6 1016.3 - 0.8
19/05:00pm 16.6 16.6 13.7 83 1.7 W 6 7 3 4 1016.0 1016.1 0.8
19/04:30pm 16.7 16.1 13.4 81 1.9 W 9 13 5 7 1016.1 - 0.8
19/04:00pm 16.8 15.2 12.9 78 2.2 WNW 13 15 7 8 1015.9 1016.0 0.8
19/03:30pm 16.8 16.0 12.9 78 2.2 WNW 9 15 5 8 1016.0 - 0.8
19/03:00pm 17.0 16.8 13.7 81 1.9 W 7 11 4 6 1016.1 1016.2 0.8
19/02:30pm 16.4 15.4 13.3 82 1.8 WSW 11 17 6 9 1016.0 - 0.8
19/02:00pm 15.1 13.6 13.1 88 1.1 WSW 13 17 7 9 1016.0 1016.1 0.8
19/01:30pm 14.4 13.4 12.4 88 1.1 WSW 9 13 5 7 1016.0 - 0.8
19/01:00pm 14.3 12.6 12.5 89 1.0 SW 13 17 7 9 1016.4 1016.5 0.8
19/12:30pm 14.4 12.8 12.8 90 0.9 WSW 13 17 7 9 1016.8 - 0.6
19/12:00pm 16.1 14.7 12.3 78 2.1 W 11 13 6 7 1016.9 1017.0 0.0
19/11:30am 16.1 14.4 12.3 78 2.1 SW 13 17 7 9 1017.1 - 0.0
19/11:00am 16.3 15.0 12.5 78 2.1 W 11 17 6 9 1017.4 1017.5 0.0
19/10:30am 16.0 14.3 12.6 80 1.9 W 13 19 7 10 1017.3 - 0.0
19/10:00am 15.7 14.3 13.4 86 1.3 NNW 13 17 7 9 1017.2 1017.3 0.0
19/09:30am 14.9 13.3 13.9 94 0.6 NW 15 20 8 11 1017.3 - 0.0
19/09:00am 14.0 12.6 13.5 97 0.3 N 13 17 7 9 1017.5 1017.6 5.2
19/08:30am 13.4 11.8 12.9 97 0.3 NNW 13 17 7 9 1017.3 - 5.2
19/08:00am 12.7 10.9 12.2 97 0.3 NW 13 17 7 9 1017.4 1017.5 5.2
19/07:30am 12.5 10.3 12.0 97 0.3 WNW 15 20 8 11 1017.1 - 5.2
19/07:00am 12.2 10.3 11.7 97 0.3 NW 13 17 7 9 1016.7 1016.8 5.2
19/06:30am 12.1 10.5 11.6 97 0.3 N 11 15 6 8 1016.5 - 5.2
19/06:00am 12.0 10.8 11.5 97 0.3 W 9 11 5 6 1016.3 1016.4 5.0
19/05:30am 12.0 10.0 11.5 97 0.3 N 13 17 7 9 1016.0 - 5.0
19/05:00am 11.9 9.9 11.4 97 0.3 N 13 17 7 9 1016.1 1016.2 5.0
19/04:30am 11.6 10.3 11.1 97 0.3 NNW 9 13 5 7 1016.0 - 5.0
19/04:00am 11.4 10.0 10.9 97 0.3 N 9 13 5 7 1016.0 1016.1 4.8
19/03:30am 11.3 9.1 10.8 97 0.3 N 13 19 7 10 1016.0 - 4.8
19/03:00am 11.3 9.1 10.7 96 0.3 N 13 17 7 9 1016.0 1016.1 4.8
19/02:30am 11.4 9.6 10.8 96 0.3 N 11 15 6 8 1016.1 - 4.8
19/02:00am 11.9 10.2 11.3 96 0.3 N 11 17 6 9 1016.3 1016.4 4.8
19/01:30am 11.6 10.2 11.0 96 0.3 NW 9 11 5 6 1016.5 - 4.8
19/01:00am 11.3 10.2 10.7 96 0.3 N 7 9 4 5 1016.6 1016.7 4.8
19/12:30am 11.5 9.7 10.9 96 0.3 N 11 13 6 7 1016.5 - 4.8
19/12:00am 12.2 10.2 11.6 96 0.3 NNW 13 17 7 9 1016.5 1016.6 4.8
 
Date/Time
WST
Temp
°C
App
Temp
°C
Dew
Point
Rel
Hum
%
Delta-T
°C
Wind Press
QNH
hPa
Press
MSL
hPa
Rain
since 9 am
mm
Dir
 
Spd
km/h
Gust
km/h
Spd
kts
Gust
kts
18/11:30pm 12.6 9.6 11.8 95 0.4 N 19 20 10 11 1016.6 - 4.8
18/11:00pm 12.7 9.5 11.8 94 0.5 N 20 30 11 16 1016.5 1016.6 4.2
18/10:30pm 13.0 9.0 11.7 92 0.7 N 24 32 13 17 1016.5 - 1.6
18/10:00pm 13.0 10.4 11.9 93 0.6 NNW 17 26 9 14 1016.6 1016.7 1.6
18/09:30pm 13.1 10.5 12.0 93 0.6 N 17 22 9 12 1016.8 - 1.4
18/09:00pm 13.0 10.4 11.9 93 0.6 N 17 30 9 16 1016.9 1017.0 1.2
18/08:30pm 13.0 9.9 11.7 92 0.7 N 19 24 10 13 1016.9 - 1.2
18/08:00pm 13.2 10.6 12.1 93 0.6 N 17 30 9 16 1016.6 1016.7 1.0
18/07:30pm 13.1 9.5 11.8 92 0.7 NW 22 33 12 18 1016.6 - 1.0
18/07:00pm 12.8 10.3 11.0 89 1.0 N 15 19 8 10 1016.3 1016.4 0.6
18/06:30pm 13.4 10.6 11.3 87 1.1 NW 17 22 9 12 1015.8 - 0.6
18/06:00pm 14.0 9.9 11.3 84 1.4 WNW 24 30 13 16 1015.4 1015.5 0.6
18/05:30pm 14.3 8.7 11.6 84 1.5 WNW 32 43 17 23 1015.2 - 0.6
18/05:00pm 15.5 11.5 11.9 79 2.0 NW 24 32 13 17 1014.7 1014.8 0.6
18/04:30pm 16.4 12.4 12.9 80 2.0 N 26 35 14 19 1014.5 - 0.6
18/04:00pm 16.9 13.2 12.8 77 2.3 N 24 33 13 18 1014.3 1014.5 0.6
18/03:30pm 16.2 11.6 12.4 78 2.1 N 28 39 15 21 1014.7 - 0.6
18/03:00pm 16.9 12.4 12.6 76 2.4 N 28 39 15 21 1014.6 1014.7 0.6
18/02:30pm 16.8 13.0 13.7 82 1.8 N 26 37 14 20 1014.6 - 0.6
18/02:00pm 16.4 12.1 13.1 81 1.9 N 28 37 15 20 1014.6 1014.7 0.6
18/01:30pm 15.4 11.9 13.4 88 1.1 NNW 24 30 13 16 1014.9 - 0.6
18/01:00pm 15.6 10.3 12.5 82 1.7 N 32 44 17 24 1015.1 1015.2 0.2
18/12:30pm 17.4 11.1 11.2 67 3.4 N 35 43 19 23 1015.1 - 0.2
18/12:00pm 18.1 11.9 11.4 65 3.7 N 35 48 19 26 1015.5 1015.6 0.0
18/11:30am 17.1 10.5 11.2 68 3.2 N 37 46 20 25 1016.1 - 0.0
18/11:00am 17.9 12.4 11.7 67 3.4 N 32 41 17 22 1016.2 1016.3 0.0
18/10:30am 17.0 11.3 11.1 68 3.2 N 32 44 17 24 1016.6 - 0.0
18/10:00am 16.2 11.1 10.7 70 3.0 N 28 39 15 21 1016.6 1016.7 0.0
18/09:30am 15.6 11.4 11.0 74 2.5 N 24 33 13 18 1016.8 - 0.0
18/09:00am 14.8 11.0 11.2 79 1.9 N 22 30 12 16 1016.7 1016.8 15.4
18/08:30am 14.1 11.1 12.0 87 1.1 N 19 24 10 13 1016.9 - 15.4
18/08:00am 12.9 9.9 12.0 94 0.5 N 19 22 10 12 1016.6 1016.7 15.4
18/07:30am 12.1 9.7 11.3 95 0.4 N 15 19 8 10 1016.5 - 15.4
18/07:00am 11.6 9.4 10.8 95 0.4 N 13 17 7 9 1016.4 1016.5 15.4
18/06:30am 12.1 10.0 11.3 95 0.4 NNW 13 17 7 9 1016.2 - 15.4
18/06:00am 12.2 9.8 11.4 95 0.4 N 15 19 8 10 1015.8 1015.9 15.4
18/05:30am 12.7 11.2 11.9 95 0.4 N 11 13 6 7 1015.7 - 15.4
18/05:00am 13.1 10.6 12.3 95 0.4 NW 17 22 9 12 1015.9 1016.0 15.2
18/04:30am 13.6 11.9 12.5 93 0.6 WNW 13 19 7 10 1015.6 - 12.8
18/04:07am 13.8 9.0 11.5 86 1.2 N 28 50 15 27 1015.2 - 4.2
18/04:00am 14.1 10.0 11.3 83 1.5 NNW 24 33 13 18 1014.9 1015.0 3.8
18/03:30am 14.3 6.9 12.3 88 1.1 N 43 61 23 33 1014.1 - 3.4
18/03:26am 13.9 7.7 12.5 91 0.8 N 37 56 20 30 1014.8 - 3.0
18/03:00am 14.0 8.3 11.7 86 1.2 NNW 33 43 18 23 1015.3 1015.4 0.6
18/02:30am 15.2 9.7 9.3 68 3.1 NNW 28 41 15 22 1015.5 - 0.0
18/02:01am 15.3 9.0 9.0 66 3.3 N 32 39 17 21 1015.2 - 0.0
18/02:00am 15.4 7.4 8.9 65 3.4 NW 41 57 22 31 1015.3 1015.4 0.0
18/01:49am 16.8 10.2 7.7 55 4.6 NW 32 56 17 30 1015.0 - 0.0
18/01:30am 17.0 12.9 8.7 58 4.3 NNW 20 33 11 18 1015.2 - 0.0
18/01:00am 17.2 13.0 9.9 62 3.9 N 22 30 12 16 1015.7 1015.8 0.0
18/12:30am 16.3 13.3 7.5 56 4.4 N 13 19 7 10 1015.5 - 0.0
18/12:00am 17.3 12.6 5.9 47 5.6 N 20 28 11 15 1016.0 1016.1 0.0
 
Date/Time
WST
Temp
°C
App
Temp
°C
Dew
Point
Rel
Hum
%
Delta-T
°C
Wind Press
QNH
hPa
Press
MSL
hPa
Rain
since 9 am
mm
Dir
 
Spd
km/h
Gust
km/h
Spd
kts
Gust
kts
17/11:30pm 17.4 12.9 4.4 42 6.2 N 17 22 9 12 1015.8 - 0.0
17/11:00pm 17.5 12.9 3.8 40 6.5 N 17 20 9 11 1016.1 1016.2 0.0
17/10:30pm 16.0 12.4 5.0 48 5.3 NNE 13 19 7 10 1016.5 - 0.0
17/10:00pm 16.8 12.6 3.8 42 6.1 N 15 17 8 9 1016.4 1016.5 0.0
17/09:30pm 16.7 13.2 3.7 42 6.1 N 11 15 6 8 1016.6 - 0.0
17/09:00pm 17.9 13.9 3.0 37 6.9 N 13 17 7 9 1016.7 1016.8 0.0
17/08:30pm 19.1 15.1 2.9 34 7.6 N 13 17 7 9 1017.1 - 0.0
17/08:00pm 20.3 15.1 2.6 31 8.3 NNW 19 24 10 13 1017.3 1017.4 0.0
17/07:30pm 19.5 15.6 3.6 35 7.6 N 13 17 7 9 1016.7 - 0.0
17/07:00pm 21.2 16.4 2.5 29 8.8 N 17 26 9 14 1016.6 1016.7 0.0
17/06:30pm 22.6 17.1 2.1 26 9.7 N 20 30 11 16 1016.6 - 0.0
17/06:00pm 19.8 16.7 5.5 39 7.1 N 11 15 6 8 1016.4 1016.5 0.0
17/05:30pm 22.0 17.6 4.6 32 8.6 N 17 20 9 11 1016.1 - 0.0
17/05:00pm 20.8 18.2 7.8 43 6.8 N 11 13 6 7 1016.0 1016.1 0.0
17/04:30pm 22.1 18.8 6.3 36 8.1 N 13 15 7 8 1015.9 - 0.0
17/04:00pm 23.9 19.5 4.8 29 9.6 N 17 20 9 11 1016.0 1016.1 0.0
17/03:30pm 24.6 18.8 4.4 27 10.2 N 24 33 13 18 1016.0 - 0.0
17/03:00pm 26.1 20.1 3.4 23 11.3 N 24 44 13 24 1016.0 1016.1 0.0

Other Formats:

Comma delimited format used in spreadsheet applications
http://www.bom.gov.au/fwo/IDW60801/IDW60801.95625.axf

JavaScript Object Notation format (JSON) in row-major order
http://www.bom.gov.au/fwo/IDW60801/IDW60801.95625.json